sensor_id;sensor_type;location;lat;lon;timestamp;pressure;altitude;pressure_sealevel;temperature;humidity
68988;BME280;56038;46.080;11.116;2024-02-23T00:01:14;98063.97;;;8.52;100.00
68988;BME280;56038;46.080;11.116;2024-02-23T00:06:16;98058.19;;;8.47;100.00
68988;BME280;56038;46.080;11.116;2024-02-23T00:11:19;98041.81;;;8.45;100.00
68988;BME280;56038;46.080;11.116;2024-02-23T00:16:21;98049.13;;;8.38;100.00
68988;BME280;56038;46.080;11.116;2024-02-23T00:21:23;98053.31;;;8.40;100.00
68988;BME280;56038;46.080;11.116;2024-02-23T00:26:26;98038.47;;;8.43;100.00
68988;BME280;56038;46.080;11.116;2024-02-23T00:31:29;98043.06;;;8.37;100.00
68988;BME280;56038;46.080;11.116;2024-02-23T00:36:31;98023.28;;;8.33;100.00
68988;BME280;56038;46.080;11.116;2024-02-23T00:41:34;98013.06;;;8.30;100.00
68988;BME280;56038;46.080;11.116;2024-02-23T00:46:36;98004.31;;;8.31;100.00
68988;BME280;56038;46.080;11.116;2024-02-23T00:51:38;97993.25;;;8.28;100.00
68988;BME280;56038;46.080;11.116;2024-02-23T00:56:41;97992.56;;;8.24;100.00
68988;BME280;56038;46.080;11.116;2024-02-23T01:01:43;97984.59;;;8.27;100.00
68988;BME280;56038;46.080;11.116;2024-02-23T01:06:44;97981.16;;;8.27;100.00
68988;BME280;56038;46.080;11.116;2024-02-23T01:11:47;97980.50;;;8.23;100.00
68988;BME280;56038;46.080;11.116;2024-02-23T01:16:49;97967.38;;;8.09;100.00
68988;BME280;56038;46.080;11.116;2024-02-23T01:21:51;97963.00;;;8.09;100.00
68988;BME280;56038;46.080;11.116;2024-02-23T01:27:01;97961.41;;;8.07;100.00
68988;BME280;56038;46.080;11.116;2024-02-23T01:32:03;97948.72;;;8.01;100.00
68988;BME280;56038;46.080;11.116;2024-02-23T01:37:05;97928.75;;;8.01;100.00
68988;BME280;56038;46.080;11.116;2024-02-23T01:42:08;97910.47;;;8.03;100.00
68988;BME280;56038;46.080;11.116;2024-02-23T01:47:11;97915.44;;;8.07;100.00
68988;BME280;56038;46.080;11.116;2024-02-23T01:52:13;97896.31;;;8.08;100.00
68988;BME280;56038;46.080;11.116;2024-02-23T01:57:17;97896.53;;;8.04;100.00
68988;BME280;56038;46.080;11.116;2024-02-23T02:02:19;97886.31;;;8.01;100.00
68988;BME280;56038;46.080;11.116;2024-02-23T02:07:21;97879.34;;;8.01;100.00
68988;BME280;56038;46.080;11.116;2024-02-23T02:12:29;97863.75;;;8.01;100.00
68988;BME280;56038;46.080;11.116;2024-02-23T02:17:31;97859.56;;;7.99;100.00
68988;BME280;56038;46.080;11.116;2024-02-23T02:22:33;97847.22;;;8.02;100.00
68988;BME280;56038;46.080;11.116;2024-02-23T02:27:36;97849.59;;;7.91;100.00
68988;BME280;56038;46.080;11.116;2024-02-23T02:32:38;97848.56;;;7.94;100.00
68988;BME280;56038;46.080;11.116;2024-02-23T02:37:40;97841.50;;;7.80;100.00
68988;BME280;56038;46.080;11.116;2024-02-23T02:42:43;97821.06;;;7.74;100.00
68988;BME280;56038;46.080;11.116;2024-02-23T02:47:45;97824.56;;;7.73;100.00
68988;BME280;56038;46.080;11.116;2024-02-23T02:52:47;97812.84;;;7.81;100.00
68988;BME280;56038;46.080;11.116;2024-02-23T02:57:50;97802.28;;;7.85;100.00
68988;BME280;56038;46.080;11.116;2024-02-23T03:02:52;97800.31;;;7.72;100.00
68988;BME280;56038;46.080;11.116;2024-02-23T03:07:53;97796.06;;;7.71;100.00
68988;BME280;56038;46.080;11.116;2024-02-23T03:12:56;97790.47;;;7.79;100.00
68988;BME280;56038;46.080;11.116;2024-02-23T03:17:58;97777.47;;;7.79;100.00
68988;BME280;56038;46.080;11.116;2024-02-23T03:23:01;97765.47;;;7.76;100.00
68988;BME280;56038;46.080;11.116;2024-02-23T03:28:05;97760.19;;;7.78;100.00
68988;BME280;56038;46.080;11.116;2024-02-23T03:33:07;97762.88;;;7.76;100.00
68988;BME280;56038;46.080;11.116;2024-02-23T03:38:08;97756.13;;;7.72;100.00
68988;BME280;56038;46.080;11.116;2024-02-23T03:43:12;97758.75;;;7.72;100.00
68988;BME280;56038;46.080;11.116;2024-02-23T03:48:13;97751.88;;;7.71;100.00
68988;BME280;56038;46.080;11.116;2024-02-23T03:53:15;97747.44;;;7.73;100.00
68988;BME280;56038;46.080;11.116;2024-02-23T03:58:18;97728.91;;;7.79;100.00
68988;BME280;56038;46.080;11.116;2024-02-23T04:03:20;97722.13;;;7.77;100.00
68988;BME280;56038;46.080;11.116;2024-02-23T04:08:22;97715.16;;;7.77;100.00
68988;BME280;56038;46.080;11.116;2024-02-23T04:13:25;97727.25;;;7.78;100.00
68988;BME280;56038;46.080;11.116;2024-02-23T04:18:26;97729.50;;;7.69;100.00
68988;BME280;56038;46.080;11.116;2024-02-23T04:23:28;97730.41;;;7.68;100.00
68988;BME280;56038;46.080;11.116;2024-02-23T04:28:31;97731.34;;;7.67;100.00
68988;BME280;56038;46.080;11.116;2024-02-23T04:33:34;97731.59;;;7.62;100.00
68988;BME280;56038;46.080;11.116;2024-02-23T04:38:35;97722.13;;;7.61;100.00
68988;BME280;56038;46.080;11.116;2024-02-23T04:43:39;97717.59;;;7.65;100.00
68988;BME280;56038;46.080;11.116;2024-02-23T04:48:41;97707.88;;;7.68;100.00
68988;BME280;56038;46.080;11.116;2024-02-23T04:53:43;97682.72;;;7.69;100.00
68988;BME280;56038;46.080;11.116;2024-02-23T04:58:46;97671.41;;;7.70;100.00
68988;BME280;56038;46.080;11.116;2024-02-23T05:03:48;97674.44;;;7.62;100.00
68988;BME280;56038;46.080;11.116;2024-02-23T05:08:49;97666.13;;;7.56;100.00
68988;BME280;56038;46.080;11.116;2024-02-23T05:13:53;97679.19;;;7.54;100.00
68988;BME280;56038;46.080;11.116;2024-02-23T05:18:55;97677.63;;;7.51;100.00
68988;BME280;56038;46.080;11.116;2024-02-23T05:23:56;97677.78;;;7.48;100.00
68988;BME280;56038;46.080;11.116;2024-02-23T05:28:59;97666.28;;;7.37;100.00
68988;BME280;56038;46.080;11.116;2024-02-23T05:34:01;97642.59;;;7.27;100.00
68988;BME280;56038;46.080;11.116;2024-02-23T05:39:03;97652.31;;;7.24;100.00
68988;BME280;56038;46.080;11.116;2024-02-23T05:44:07;97671.41;;;7.22;100.00
68988;BME280;56038;46.080;11.116;2024-02-23T05:49:09;97667.56;;;7.30;100.00
68988;BME280;56038;46.080;11.116;2024-02-23T05:54:10;97676.09;;;7.32;100.00
68988;BME280;56038;46.080;11.116;2024-02-23T05:59:15;97666.28;;;7.37;100.00
68988;BME280;56038;46.080;11.116;2024-02-23T06:04:16;97668.41;;;7.30;100.00
68988;BME280;56038;46.080;11.116;2024-02-23T06:09:18;97646.88;;;7.28;100.00
68988;BME280;56038;46.080;11.116;2024-02-23T06:14:21;97665.16;;;7.27;100.00
68988;BME280;56038;46.080;11.116;2024-02-23T06:19:24;97674.91;;;7.21;100.00
68988;BME280;56038;46.080;11.116;2024-02-23T06:24:26;97675.09;;;7.18;100.00
68988;BME280;56038;46.080;11.116;2024-02-23T06:29:29;97666.28;;;7.05;100.00
68988;BME280;56038;46.080;11.116;2024-02-23T06:34:31;97684.69;;;7.01;100.00
68988;BME280;56038;46.080;11.116;2024-02-23T06:39:32;97682.78;;;7.04;100.00
68988;BME280;56038;46.080;11.116;2024-02-23T06:44:35;97686.72;;;6.96;100.00
68988;BME280;56038;46.080;11.116;2024-02-23T06:49:41;97666.66;;;6.82;100.00
68988;BME280;56038;46.080;11.116;2024-02-23T06:54:43;97692.25;;;6.72;100.00
68988;BME280;56038;46.080;11.116;2024-02-23T06:59:46;97698.50;;;6.68;100.00
68988;BME280;56038;46.080;11.116;2024-02-23T07:04:48;97701.34;;;6.64;100.00
68988;BME280;56038;46.080;11.116;2024-02-23T07:09:50;97689.28;;;6.45;100.00
68988;BME280;56038;46.080;11.116;2024-02-23T07:14:53;97695.53;;;6.41;100.00
68988;BME280;56038;46.080;11.116;2024-02-23T07:19:55;97711.88;;;6.26;100.00
68988;BME280;56038;46.080;11.116;2024-02-23T07:25:05;97708.50;;;6.24;100.00
68988;BME280;56038;46.080;11.116;2024-02-23T07:30:10;97689.75;;;6.19;100.00
68988;BME280;56038;46.080;11.116;2024-02-23T07:35:12;97684.78;;;6.14;100.00
68988;BME280;56038;46.080;11.116;2024-02-23T07:40:14;97677.47;;;6.22;100.00
68988;BME280;56038;46.080;11.116;2024-02-23T07:45:17;97663.28;;;6.12;100.00
68988;BME280;56038;46.080;11.116;2024-02-23T07:50:19;97657.66;;;6.04;100.00
68988;BME280;56038;46.080;11.116;2024-02-23T07:55:21;97664.69;;;6.02;100.00
68988;BME280;56038;46.080;11.116;2024-02-23T08:00:25;97659.56;;;6.00;100.00
68988;BME280;56038;46.080;11.116;2024-02-23T08:05:26;97667.34;;;6.00;100.00
68988;BME280;56038;46.080;11.116;2024-02-23T08:10:28;97657.50;;;5.90;100.00
68988;BME280;56038;46.080;11.116;2024-02-23T08:15:31;97648.69;;;5.75;100.00
68988;BME280;56038;46.080;11.116;2024-02-23T08:20:33;97655.69;;;5.73;100.00
68988;BME280;56038;46.080;11.116;2024-02-23T08:25:34;97661.78;;;5.72;100.00
68988;BME280;56038;46.080;11.116;2024-02-23T08:30:37;97651.69;;;5.66;100.00
68988;BME280;56038;46.080;11.116;2024-02-23T08:35:39;97656.44;;;5.75;100.00
68988;BME280;56038;46.080;11.116;2024-02-23T08:40:41;97665.91;;;5.76;100.00
68988;BME280;56038;46.080;11.116;2024-02-23T08:45:44;97659.03;;;5.75;100.00
68988;BME280;56038;46.080;11.116;2024-02-23T08:50:46;97666.97;;;5.72;100.00
68988;BME280;56038;46.080;11.116;2024-02-23T08:55:48;97678.50;;;5.65;100.00
68988;BME280;56038;46.080;11.116;2024-02-23T09:00:51;97678.97;;;5.56;100.00
68988;BME280;56038;46.080;11.116;2024-02-23T09:05:53;97686.75;;;5.56;100.00
68988;BME280;56038;46.080;11.116;2024-02-23T09:10:55;97679.50;;;5.62;100.00
68988;BME280;56038;46.080;11.116;2024-02-23T09:15:58;97680.50;;;5.60;100.00
68988;BME280;56038;46.080;11.116;2024-02-23T09:21:00;97679.50;;;5.62;100.00
68988;BME280;56038;46.080;11.116;2024-02-23T09:26:08;97677.81;;;5.61;100.00
68988;BME280;56038;46.080;11.116;2024-02-23T09:31:11;97679.50;;;5.62;100.00
68988;BME280;56038;46.080;11.116;2024-02-23T09:36:13;97682.78;;;5.66;100.00
68988;BME280;56038;46.080;11.116;2024-02-23T09:41:19;97671.50;;;5.67;100.00
68988;BME280;56038;46.080;11.116;2024-02-23T09:46:23;97663.53;;;5.71;100.00
68988;BME280;56038;46.080;11.116;2024-02-23T09:51:25;97665.00;;;5.77;100.00
68988;BME280;56038;46.080;11.116;2024-02-23T09:56:27;97668.34;;;5.79;100.00
68988;BME280;56038;46.080;11.116;2024-02-23T10:01:32;97670.84;;;5.81;100.00
68988;BME280;56038;46.080;11.116;2024-02-23T10:06:34;97681.44;;;5.76;100.00
68988;BME280;56038;46.080;11.116;2024-02-23T10:11:35;97679.47;;;5.81;100.00
68988;BME280;56038;46.080;11.116;2024-02-23T10:16:39;97687.50;;;5.58;100.00
68988;BME280;56038;46.080;11.116;2024-02-23T10:21:40;97682.59;;;5.52;100.00
68988;BME280;56038;46.080;11.116;2024-02-23T10:26:42;97682.59;;;5.52;100.00
68988;BME280;56038;46.080;11.116;2024-02-23T10:31:46;97686.66;;;5.57;100.00
68988;BME280;56038;46.080;11.116;2024-02-23T10:36:51;97681.94;;;5.65;100.00
68988;BME280;56038;46.080;11.116;2024-02-23T10:41:57;97692.22;;;5.67;100.00
68988;BME280;56038;46.080;11.116;2024-02-23T10:47:01;97682.22;;;5.78;100.00
68988;BME280;56038;46.080;11.116;2024-02-23T10:52:04;97689.00;;;5.81;100.00
68988;BME280;56038;46.080;11.116;2024-02-23T10:57:06;97685.72;;;5.77;100.00
68988;BME280;56038;46.080;11.116;2024-02-23T11:02:10;97666.06;;;5.73;100.00
68988;BME280;56038;46.080;11.116;2024-02-23T11:07:13;97653.19;;;5.71;100.00
68988;BME280;56038;46.080;11.116;2024-02-23T11:12:22;97660.63;;;5.78;100.00
68988;BME280;56038;46.080;11.116;2024-02-23T11:17:28;97648.69;;;5.75;100.00
68988;BME280;56038;46.080;11.116;2024-02-23T11:22:31;97640.28;;;5.53;100.00
68988;BME280;56038;46.080;11.116;2024-02-23T11:27:35;97641.56;;;5.61;100.00
68988;BME280;56038;46.080;11.116;2024-02-23T11:32:40;97640.44;;;5.67;100.00
68988;BME280;56038;46.080;11.116;2024-02-23T11:37:47;97633.22;;;5.74;100.00
68988;BME280;56038;46.080;11.116;2024-02-23T11:42:49;97622.63;;;5.78;100.00
68988;BME280;56038;46.080;11.116;2024-02-23T11:47:52;97622.53;;;5.80;100.00
68988;BME280;56038;46.080;11.116;2024-02-23T11:52:54;97622.59;;;5.61;100.00
68988;BME280;56038;46.080;11.116;2024-02-23T11:57:55;97622.28;;;5.50;100.00
68988;BME280;56038;46.080;11.116;2024-02-23T12:02:59;97620.06;;;5.42;100.00
68988;BME280;56038;46.080;11.116;2024-02-23T12:08:00;97620.91;;;5.43;100.00
68988;BME280;56038;46.080;11.116;2024-02-23T12:13:03;97606.78;;;5.31;100.00
68988;BME280;56038;46.080;11.116;2024-02-23T12:18:06;97586.75;;;5.34;100.00
68988;BME280;56038;46.080;11.116;2024-02-23T12:23:12;97575.06;;;5.45;100.00
68988;BME280;56038;46.080;11.116;2024-02-23T12:28:17;97556.50;;;5.54;100.00
68988;BME280;56038;46.080;11.116;2024-02-23T12:33:20;97550.25;;;5.58;100.00
68988;BME280;56038;46.080;11.116;2024-02-23T12:38:22;97558.28;;;5.52;100.00
68988;BME280;56038;46.080;11.116;2024-02-23T12:43:24;97533.31;;;5.51;100.00
68988;BME280;56038;46.080;11.116;2024-02-23T12:48:27;97536.59;;;5.37;100.00
68988;BME280;56038;46.080;11.116;2024-02-23T12:53:33;97531.47;;;5.35;100.00
68988;BME280;56038;46.080;11.116;2024-02-23T12:58:37;97546.88;;;5.38;100.00
68988;BME280;56038;46.080;11.116;2024-02-23T13:03:41;97552.66;;;5.26;100.00
68988;BME280;56038;46.080;11.116;2024-02-23T13:08:43;97536.06;;;5.48;100.00
68988;BME280;56038;46.080;11.116;2024-02-23T13:13:45;97547.56;;;5.42;100.00
68988;BME280;56038;46.080;11.116;2024-02-23T13:18:48;97561.63;;;5.36;100.00
68988;BME280;56038;46.080;11.116;2024-02-23T13:23:50;97549.47;;;5.38;100.00
68988;BME280;56038;46.080;11.116;2024-02-23T13:28:52;97538.78;;;5.27;100.00
68988;BME280;56038;46.080;11.116;2024-02-23T13:33:55;97530.31;;;5.06;100.00
68988;BME280;56038;46.080;11.116;2024-02-23T13:38:57;97527.13;;;5.19;100.00
68988;BME280;56038;46.080;11.116;2024-02-23T13:43:58;97514.06;;;5.22;100.00
68988;BME280;56038;46.080;11.116;2024-02-23T13:49:05;97521.81;;;5.22;100.00
68988;BME280;56038;46.080;11.116;2024-02-23T13:54:07;97498.63;;;5.19;100.00
68988;BME280;56038;46.080;11.116;2024-02-23T13:59:09;97492.25;;;5.08;100.00
68988;BME280;56038;46.080;11.116;2024-02-23T14:04:12;97512.81;;;5.11;100.00
68988;BME280;56038;46.080;11.116;2024-02-23T14:09:14;97538.69;;;5.11;100.00
68988;BME280;56038;46.080;11.116;2024-02-23T14:14:16;97548.44;;;5.06;100.00
68988;BME280;56038;46.080;11.116;2024-02-23T14:19:19;97556.00;;;4.92;100.00
68988;BME280;56038;46.080;11.116;2024-02-23T14:24:21;97532.84;;;4.89;100.00
68988;BME280;56038;46.080;11.116;2024-02-23T14:29:22;97539.13;;;4.84;100.00
68988;BME280;56038;46.080;11.116;2024-02-23T14:34:27;97557.94;;;4.68;100.00
68988;BME280;56038;46.080;11.116;2024-02-23T14:39:29;97536.91;;;4.57;100.00
68988;BME280;56038;46.080;11.116;2024-02-23T14:44:31;97544.19;;;4.49;100.00
68988;BME280;56038;46.080;11.116;2024-02-23T14:49:34;97535.22;;;4.37;100.00
68988;BME280;56038;46.080;11.116;2024-02-23T14:54:36;97541.03;;;4.42;100.00
68988;BME280;56038;46.080;11.116;2024-02-23T14:59:38;97546.22;;;4.42;100.00
68988;BME280;56038;46.080;11.116;2024-02-23T15:04:48;97538.78;;;4.35;100.00
68988;BME280;56038;46.080;11.116;2024-02-23T15:09:50;97543.31;;;4.30;100.00
68988;BME280;56038;46.080;11.116;2024-02-23T15:14:51;97520.53;;;4.19;100.00
68988;BME280;56038;46.080;11.116;2024-02-23T15:19:54;97527.78;;;4.11;100.00
68988;BME280;56038;46.080;11.116;2024-02-23T15:24:56;97526.75;;;4.15;100.00
68988;BME280;56038;46.080;11.116;2024-02-23T15:29:59;97531.00;;;4.16;100.00
68988;BME280;56038;46.080;11.116;2024-02-23T15:35:03;97550.00;;;4.15;100.00
68988;BME280;56038;46.080;11.116;2024-02-23T15:40:06;97564.75;;;4.13;100.00
68988;BME280;56038;46.080;11.116;2024-02-23T15:45:10;97588.69;;;4.16;100.00
68988;BME280;56038;46.080;11.116;2024-02-23T15:50:13;97564.75;;;4.13;100.00
68988;BME280;56038;46.080;11.116;2024-02-23T15:55:15;97534.00;;;3.86;100.00
68988;BME280;56038;46.080;11.116;2024-02-23T16:00:18;97559.19;;;3.81;100.00
68988;BME280;56038;46.080;11.116;2024-02-23T16:05:21;97564.44;;;3.80;100.00
68988;BME280;56038;46.080;11.116;2024-02-23T16:10:23;97568.63;;;3.82;100.00
68988;BME280;56038;46.080;11.116;2024-02-23T16:15:24;97586.69;;;3.82;100.00
68988;BME280;56038;46.080;11.116;2024-02-23T16:20:27;97591.31;;;3.74;100.00
68988;BME280;56038;46.080;11.116;2024-02-23T16:25:29;97599.84;;;3.76;100.00
68988;BME280;56038;46.080;11.116;2024-02-23T16:30:31;97617.75;;;3.81;100.00
68988;BME280;56038;46.080;11.116;2024-02-23T16:35:34;97587.97;;;3.72;100.00
68988;BME280;56038;46.080;11.116;2024-02-23T16:40:35;97595.78;;;3.71;100.00
68988;BME280;56038;46.080;11.116;2024-02-23T16:45:39;97603.78;;;3.65;100.00
68988;BME280;56038;46.080;11.116;2024-02-23T16:50:42;97593.41;;;3.66;100.00
68988;BME280;56038;46.080;11.116;2024-02-23T16:55:44;97609.78;;;3.65;100.00
68988;BME280;56038;46.080;11.116;2024-02-23T17:00:45;97580.56;;;3.65;100.00
68988;BME280;56038;46.080;11.116;2024-02-23T17:05:48;97603.47;;;3.72;100.00
68988;BME280;56038;46.080;11.116;2024-02-23T17:10:50;97642.00;;;3.77;100.00
68988;BME280;56038;46.080;11.116;2024-02-23T17:15:52;97645.38;;;3.79;100.00
68988;BME280;56038;46.080;11.116;2024-02-23T17:20:55;97648.06;;;3.76;100.00
68988;BME280;56038;46.080;11.116;2024-02-23T17:25:57;97648.91;;;3.76;100.00
68988;BME280;56038;46.080;11.116;2024-02-23T17:30:59;97659.97;;;3.80;100.00
68988;BME280;56038;46.080;11.116;2024-02-23T17:36:02;97668.38;;;3.85;100.00
68988;BME280;56038;46.080;11.116;2024-02-23T17:41:04;97664.75;;;3.89;100.00
68988;BME280;56038;46.080;11.116;2024-02-23T17:46:06;97683.53;;;3.92;100.00
68988;BME280;56038;46.080;11.116;2024-02-23T17:51:09;97677.31;;;3.98;100.00
68988;BME280;56038;46.080;11.116;2024-02-23T17:56:11;97680.47;;;4.05;100.00
68988;BME280;56038;46.080;11.116;2024-02-23T18:01:15;97698.41;;;4.08;100.00
68988;BME280;56038;46.080;11.116;2024-02-23T18:06:18;97693.03;;;4.14;100.00
68988;BME280;56038;46.080;11.116;2024-02-23T18:11:23;97685.91;;;4.19;100.00
68988;BME280;56038;46.080;11.116;2024-02-23T18:16:25;97686.75;;;4.19;100.00
68988;BME280;56038;46.080;11.116;2024-02-23T18:21:30;97689.97;;;4.25;100.00
68988;BME280;56038;46.080;11.116;2024-02-23T18:26:32;97687.97;;;4.31;100.00
68988;BME280;56038;46.080;11.116;2024-02-23T18:31:34;97675.00;;;4.33;100.00
68988;BME280;56038;46.080;11.116;2024-02-23T18:36:37;97686.88;;;4.37;100.00
68988;BME280;56038;46.080;11.116;2024-02-23T18:41:39;97691.00;;;4.41;100.00
68988;BME280;56038;46.080;11.116;2024-02-23T18:46:41;97686.56;;;4.44;100.00
68988;BME280;56038;46.080;11.116;2024-02-23T18:51:44;97693.91;;;4.54;100.00
68988;BME280;56038;46.080;11.116;2024-02-23T18:56:46;97676.59;;;4.56;100.00
68988;BME280;56038;46.080;11.116;2024-02-23T19:01:48;97684.47;;;4.53;100.00
68988;BME280;56038;46.080;11.116;2024-02-23T19:06:51;97700.31;;;4.65;100.00
68988;BME280;56038;46.080;11.116;2024-02-23T19:11:53;97708.84;;;4.67;100.00
68988;BME280;56038;46.080;11.116;2024-02-23T19:16:55;97695.13;;;4.65;100.00
68988;BME280;56038;46.080;11.116;2024-02-23T19:21:58;97681.44;;;4.63;100.00
68988;BME280;56038;46.080;11.116;2024-02-23T19:27:00;97691.91;;;4.60;100.00
68988;BME280;56038;46.080;11.116;2024-02-23T19:32:02;97682.41;;;4.61;100.00
68988;BME280;56038;46.080;11.116;2024-02-23T19:37:05;97684.47;;;4.53;100.00
68988;BME280;56038;46.080;11.116;2024-02-23T19:42:07;97706.91;;;4.52;100.00
68988;BME280;56038;46.080;11.116;2024-02-23T19:47:08;97717.88;;;4.57;100.00
68988;BME280;56038;46.080;11.116;2024-02-23T19:52:12;97716.59;;;4.67;100.00
68988;BME280;56038;46.080;11.116;2024-02-23T19:57:14;97730.38;;;4.68;100.00
68988;BME280;56038;46.080;11.116;2024-02-23T20:02:17;97724.22;;;4.70;100.00
68988;BME280;56038;46.080;11.116;2024-02-23T20:07:20;97767.94;;;4.76;100.00
68988;BME280;56038;46.080;11.116;2024-02-23T20:12:23;97769.56;;;4.79;100.00
68988;BME280;56038;46.080;11.116;2024-02-23T20:17:24;97754.75;;;4.82;100.00
68988;BME280;56038;46.080;11.116;2024-02-23T20:22:29;97773.63;;;4.85;100.00
68988;BME280;56038;46.080;11.116;2024-02-23T20:27:31;97788.09;;;4.89;100.00
68988;BME280;56038;46.080;11.116;2024-02-23T20:32:32;97792.13;;;4.96;100.00
68988;BME280;56038;46.080;11.116;2024-02-23T20:37:36;97796.19;;;5.01;100.00
68988;BME280;56038;46.080;11.116;2024-02-23T20:42:38;97802.22;;;4.81;100.00
68988;BME280;56038;46.080;11.116;2024-02-23T20:47:40;97817.53;;;4.86;100.00
68988;BME280;56038;46.080;11.116;2024-02-23T20:52:43;97827.88;;;4.86;100.00
68988;BME280;56038;46.080;11.116;2024-02-23T20:57:45;97859.59;;;4.69;100.00
68988;BME280;56038;46.080;11.116;2024-02-23T21:02:47;97864.00;;;4.67;100.00
68988;BME280;56038;46.080;11.116;2024-02-23T21:07:50;97861.34;;;4.69;100.00
68988;BME280;56038;46.080;11.116;2024-02-23T21:12:52;97859.44;;;4.74;100.00
68988;BME280;56038;46.080;11.116;2024-02-23T21:17:54;97873.72;;;4.82;100.00
68988;BME280;56038;46.080;11.116;2024-02-23T21:22:57;97874.69;;;4.80;100.00
68988;BME280;56038;46.080;11.116;2024-02-23T21:27:59;97882.53;;;4.78;100.00
68988;BME280;56038;46.080;11.116;2024-02-23T21:33:00;97881.69;;;4.78;100.00
68988;BME280;56038;46.080;11.116;2024-02-23T21:38:04;97891.75;;;4.64;100.00
68988;BME280;56038;46.080;11.116;2024-02-23T21:43:07;97888.53;;;4.57;100.00
68988;BME280;56038;46.080;11.116;2024-02-23T21:48:09;97900.53;;;4.60;100.00
68988;BME280;56038;46.080;11.116;2024-02-23T21:53:12;97902.88;;;4.66;100.00
68988;BME280;56038;46.080;11.116;2024-02-23T21:58:14;97914.03;;;4.66;100.00
68988;BME280;56038;46.080;11.116;2024-02-23T22:03:15;97924.41;;;4.66;100.00
68988;BME280;56038;46.080;11.116;2024-02-23T22:08:20;97933.84;;;4.67;100.00
68988;BME280;56038;46.080;11.116;2024-02-23T22:13:22;97932.81;;;4.71;100.00
68988;BME280;56038;46.080;11.116;2024-02-23T22:18:24;97938.78;;;4.73;100.00
68988;BME280;56038;46.080;11.116;2024-02-23T22:23:29;97956.00;;;4.73;100.00
68988;BME280;56038;46.080;11.116;2024-02-23T22:28:31;97970.94;;;4.66;100.00
68988;BME280;56038;46.080;11.116;2024-02-23T22:33:33;97962.16;;;4.70;100.00
68988;BME280;56038;46.080;11.116;2024-02-23T22:38:36;97975.16;;;4.69;100.00
68988;BME280;56038;46.080;11.116;2024-02-23T22:43:38;97972.69;;;4.66;100.00
68988;BME280;56038;46.080;11.116;2024-02-23T22:48:40;97967.59;;;4.64;100.00
68988;BME280;56038;46.080;11.116;2024-02-23T22:53:43;97980.56;;;4.63;100.00
68988;BME280;56038;46.080;11.116;2024-02-23T22:58:45;97984.19;;;4.59;100.00
68988;BME280;56038;46.080;11.116;2024-02-23T23:03:47;97992.72;;;4.61;100.00
68988;BME280;56038;46.080;11.116;2024-02-23T23:08:50;98007.41;;;4.60;100.00
68988;BME280;56038;46.080;11.116;2024-02-23T23:13:52;98005.72;;;4.59;100.00
68988;BME280;56038;46.080;11.116;2024-02-23T23:18:53;98010.97;;;4.56;100.00
68988;BME280;56038;46.080;11.116;2024-02-23T23:23:57;98005.88;;;4.55;100.00
68988;BME280;56038;46.080;11.116;2024-02-23T23:28:58;98010.31;;;4.51;100.00
68988;BME280;56038;46.080;11.116;2024-02-23T23:34:00;98013.13;;;4.45;100.00
68988;BME280;56038;46.080;11.116;2024-02-23T23:39:03;98010.75;;;4.39;100.00
68988;BME280;56038;46.080;11.116;2024-02-23T23:44:06;98014.56;;;4.30;100.00
68988;BME280;56038;46.080;11.116;2024-02-23T23:49:07;98021.41;;;4.31;100.00
68988;BME280;56038;46.080;11.116;2024-02-23T23:54:11;98027.41;;;4.32;100.00
68988;BME280;56038;46.080;11.116;2024-02-23T23:59:12;98047.19;;;4.33;100.00
